Daten der privaten Wetterstation Blomberg/Lippe
Wetterdaten: aktuell Donnerstag, 30.11.2023 02:30
Datum Zeit Auentemp. Rel.Feuchte Luftdruck Regen Wind Richtung Richtung Windben
30.11.2023 02:30 0,0 C 95 % 1004,0 hPa 0,0 l/m 0,0 km/h (0 Bft) S 171 1,8 km/h (1 Bft)
30.11.2023 02:15 0,1 C 94 % 1004,1 hPa 0,0 l/m 0,0 km/h (0 Bft) S 171 0,0 km/h (0 Bft)
30.11.2023 02:00 0,1 C 94 % 1004,0 hPa 0,0 l/m 0,0 km/h (0 Bft) S 171 0,0 km/h (0 Bft)
30.11.2023 01:45 0,1 C 94 % 1003,9 hPa 0,0 l/m 0,0 km/h (0 Bft) S 171 0,0 km/h (0 Bft)
30.11.2023 01:30 0,1 C 94 % 1003,9 hPa 0,0 l/m 0,0 km/h (0 Bft) S 171 0,0 km/h (0 Bft)
30.11.2023 01:15 0,1 C 94 % 1003,9 hPa 0,0 l/m 0,0 km/h (0 Bft) S 171 1,8 km/h (1 Bft)
30.11.2023 01:00 0,1 C 94 % 1003,9 hPa 0,0 l/m 0,0 km/h (0 Bft) S 171 0,0 km/h (0 Bft)
30.11.2023 00:45 0,1 C 94 % 1003,8 hPa 0,0 l/m 0,0 km/h (0 Bft) S 171 0,0 km/h (0 Bft)
30.11.2023 00:30 0,1 C 94 % 1003,9 hPa 0,0 l/m 0,0 km/h (0 Bft) S 171 0,0 km/h (0 Bft)
30.11.2023 00:15 0,1 C 94 % 1003,9 hPa 0,0 l/m 0,0 km/h (0 Bft) S 171 0,0 km/h (0 Bft)
30.11.2023 00:00 0,1 C 94 % 1003,8 hPa 0,0 l/m 0,0 km/h (0 Bft) S 171 1,8 km/h (1 Bft)
29.11.2023 23:45 0,0 C 94 % 1003,7 hPa 0,0 l/m 0,0 km/h (0 Bft) S 171 0,0 km/h (0 Bft)
29.11.2023 23:30 0,1 C 94 % 1003,5 hPa 0,0 l/m 0,0 km/h (0 Bft) S 171 0,0 km/h (0 Bft)
29.11.2023 23:15 -0,1 C 94 % 1003,6 hPa 0,0 l/m 0,0 km/h (0 Bft) S 171 0,0 km/h (0 Bft)
29.11.2023 23:00 0,0 C 94 % 1003,5 hPa 0,0 l/m 0,0 km/h (0 Bft) S 171 0,0 km/h (0 Bft)
29.11.2023 22:45 0,0 C 94 % 1003,5 hPa 0,0 l/m 0,0 km/h (0 Bft) S 171 0,0 km/h (0 Bft)
29.11.2023 22:30 -0,1 C 94 % 1003,4 hPa 0,0 l/m 0,0 km/h (0 Bft) S 171 0,0 km/h (0 Bft)
29.11.2023 22:15 -0,1 C 93 % 1003,5 hPa 0,0 l/m 0,0 km/h (0 Bft) S 171 0,0 km/h (0 Bft)
29.11.2023 22:00 -0,1 C 93 % 1003,5 hPa 0,2 l/m 0,0 km/h (0 Bft) S 171 0,0 km/h (0 Bft)
29.11.2023 21:45 -0,2 C 93 % 1003,6 hPa 0,4 l/m 0,0 km/h (0 Bft) S 171 0,0 km/h (0 Bft)
29.11.2023 21:30 -0,1 C 93 % 1003,5 hPa 0,2 l/m 0,2 km/h (0 Bft) S 171 3,7 km/h (1 Bft)
29.11.2023 21:15 -0,1 C 93 % 1003,5 hPa 0,6 l/m 2,1 km/h (1 Bft) S 171 9,1 km/h (2 Bft)
29.11.2023 21:00 0,0 C 92 % 1003,4 hPa 0,0 l/m 0,2 km/h (0 Bft) SO 142 5,5 km/h (2 Bft)
29.11.2023 20:45 0,0 C 92 % 1003,4 hPa 0,0 l/m 0,3 km/h (0 Bft) SO 142 5,5 km/h (2 Bft)
29.11.2023 20:30 0,0 C 92 % 1003,5 hPa 0,0 l/m 0,0 km/h (0 Bft) W-NW 291 0,0 km/h (0 Bft)
29.11.2023 20:15 0,0 C 92 % 1003,4 hPa 0,0 l/m 0,0 km/h (0 Bft) W-NW 291 1,8 km/h (1 Bft)
29.11.2023 20:00 0,0 C 92 % 1003,4 hPa 0,0 l/m 0,0 km/h (0 Bft) W-NW 291 1,8 km/h (1 Bft)
29.11.2023 19:45 -0,1 C 91 % 1003,4 hPa 0,0 l/m 0,0 km/h (0 Bft) W-NW 291 1,8 km/h (1 Bft)
29.11.2023 19:30 -0,1 C 91 % 1003,4 hPa 0,0 l/m 0,2 km/h (0 Bft) W-NW 291 3,7 km/h (1 Bft)
29.11.2023 19:15 -0,2 C 91 % 1003,4 hPa 0,0 l/m 0,0 km/h (0 Bft) W-NW 291 0,0 km/h (0 Bft)
29.11.2023 19:00 -0,3 C 90 % 1003,5 hPa 0,0 l/m 0,0 km/h (0 Bft) W-NW 291 0,0 km/h (0 Bft)
29.11.2023 18:45 -0,3 C 90 % 1003,4 hPa 0,0 l/m 0,0 km/h (0 Bft) W-NW 291 0,0 km/h (0 Bft)
29.11.2023 18:30 -0,3 C 90 % 1003,3 hPa 0,0 l/m 0,0 km/h (0 Bft) W-NW 291 1,8 km/h (1 Bft)
29.11.2023 18:15 -0,3 C 90 % 1003,1 hPa 0,0 l/m 0,0 km/h (0 Bft) W-NW 291 0,0 km/h (0 Bft)
29.11.2023 18:00 -0,3 C 89 % 1003,1 hPa 0,0 l/m 0,0 km/h (0 Bft) W-NW 291 0,0 km/h (0 Bft)
29.11.2023 17:45 -0,2 C 89 % 1003,0 hPa 0,0 l/m 0,0 km/h (0 Bft) W-NW 291 0,0 km/h (0 Bft)
29.11.2023 17:30 -0,1 C 89 % 1003,1 hPa 0,0 l/m 0,0 km/h (0 Bft) W-NW 291 3,7 km/h (1 Bft)
29.11.2023 17:15 0,0 C 89 % 1003,0 hPa 0,0 l/m 0,2 km/h (0 Bft) W-NW 291 5,5 km/h (2 Bft)
29.11.2023 17:00 0,1 C 89 % 1003,0 hPa 0,0 l/m 0,4 km/h (0 Bft) W-NW 291 3,7 km/h (1 Bft)
29.11.2023 16:45 0,2 C 88 % 1002,9 hPa 0,0 l/m 0,6 km/h (0 Bft) W-NW 287 7,3 km/h (2 Bft)
29.11.2023 16:30 0,2 C 88 % 1002,8 hPa 0,0 l/m 1,8 km/h (1 Bft) W-NW 294 12,8 km/h (3 Bft)
29.11.2023 16:15 0,3 C 88 % 1002,7 hPa 0,0 l/m 1,8 km/h (1 Bft) W-NW 283 12,8 km/h (3 Bft)
29.11.2023 16:00 0,5 C 88 % 1002,6 hPa 0,0 l/m 3,5 km/h (1 Bft) W-NW 296 16,5 km/h (3 Bft)
29.11.2023 15:45 0,6 C 89 % 1002,5 hPa 0,0 l/m 6,7 km/h (2 Bft) W 274 23,8 km/h (4 Bft)
29.11.2023 15:30 0,7 C 90 % 1002,2 hPa 0,0 l/m 5,5 km/h (2 Bft) W 281 18,3 km/h (3 Bft)
29.11.2023 15:15 0,8 C 90 % 1002,0 hPa 0,0 l/m 4,2 km/h (1 Bft) W-NW 302 20,1 km/h (4 Bft)
29.11.2023 15:00 0,8 C 91 % 1001,8 hPa 0,0 l/m 7,1 km/h (2 Bft) W 271 23,8 km/h (4 Bft)
29.11.2023 14:45 1,0 C 92 % 1001,6 hPa 0,0 l/m 6,0 km/h (2 Bft) W-NW 295 20,1 km/h (4 Bft)
29.11.2023 14:30 1,1 C 93 % 1001,3 hPa 0,0 l/m 5,9 km/h (2 Bft) S-SW 196 25,6 km/h (4 Bft)
_ Min-Zeit 03:00 16:00 11:00 - 04:30 - - 17:45
Minimum _ -1,2 C 88 % 999,3 hPa - 0,0 km/h (0 Bft) - - 0,0 km/h (0 Bft)
_ Max-Zeit 12:30 04:45 02:15 21:15 13:45 - - 13:30
Maximum _ 1,8 C 95 % 1004,1 hPa 0,6 l/m 9,2 km/h
W (2 Bft)
- - 36,6 km/h
W (5 Bft)
Durchschnitt _ 0,3 C 93 % 1002,1 hPa #3,8 l/m 2,7 km/h (1 Bft) S-SW - 10,9 km/h (2 Bft)
Wetterstation: Davis Vantage Pro2 Aktiv